createdAt,value
2023-03-12T00:00:03.006Z,0.9
2023-03-12T00:00:53.023Z,0.9
2023-03-12T00:01:53.020Z,0.9
2023-03-12T00:02:54.303Z,1
2023-03-12T00:03:53.191Z,1
2023-03-12T00:04:54.036Z,1.2
2023-03-12T00:05:53.272Z,1.1
2023-03-12T00:06:53.252Z,1.1
2023-03-12T00:07:53.236Z,1.1
2023-03-12T00:08:55.959Z,1.2
2023-03-12T00:09:58.396Z,1.1
2023-03-12T00:10:53.356Z,1.1
2023-03-12T00:11:53.545Z,1
2023-03-12T00:12:53.463Z,1.1
2023-03-12T00:13:53.431Z,1.1
2023-03-12T00:14:53.501Z,1.1
2023-03-12T00:15:53.577Z,1
2023-03-12T00:16:53.599Z,1.1
2023-03-12T00:17:53.631Z,1
2023-03-12T00:18:53.881Z,1.1
2023-03-12T00:19:53.680Z,1
2023-03-12T00:21:01.168Z,1
2023-03-12T00:21:53.721Z,1
2023-03-12T00:22:56.210Z,1
2023-03-12T00:23:53.782Z,1.1
2023-03-12T00:24:54.118Z,1
2023-03-12T00:25:54.178Z,1.1
2023-03-12T00:26:54.100Z,1
2023-03-12T00:27:53.915Z,1.1
2023-03-12T00:28:54.195Z,1
2023-03-12T00:29:54.001Z,1
2023-03-12T00:30:57.211Z,1.1
2023-03-12T00:31:59.067Z,1.2
2023-03-12T00:32:54.176Z,1.2
2023-03-12T00:33:54.191Z,1.3
2023-03-12T00:35:11.260Z,1.2
2023-03-12T00:35:54.998Z,1.1
2023-03-12T00:36:54.409Z,1.2
2023-03-12T00:37:56.011Z,1
2023-03-12T00:39:00.530Z,1
2023-03-12T00:39:54.819Z,1.1
2023-03-12T00:40:59.638Z,1
2023-03-12T00:41:54.773Z,0.9
2023-03-12T00:42:54.802Z,1
2023-03-12T00:43:59.823Z,1
2023-03-12T00:45:00.436Z,0.9
2023-03-12T00:45:54.954Z,0.9
2023-03-12T00:47:04.258Z,1.1
2023-03-12T00:47:55.240Z,1
2023-03-12T00:48:55.495Z,0.9
2023-03-12T00:49:58.329Z,0.8
2023-03-12T00:50:55.309Z,1
2023-03-12T00:51:55.369Z,0.9
2023-03-12T00:52:56.854Z,1
2023-03-12T00:53:55.433Z,1
2023-03-12T00:54:55.749Z,1.1
2023-03-12T00:55:55.777Z,1
2023-03-12T00:56:55.651Z,0.9
2023-03-12T00:58:00.590Z,1
2023-03-12T00:58:55.881Z,1
2023-03-12T00:59:55.923Z,0.9
2023-03-12T01:00:55.691Z,1
2023-03-12T01:01:55.792Z,0.9
2023-03-12T01:02:55.878Z,1
2023-03-12T01:03:56.108Z,1
2023-03-12T01:05:01.251Z,0.9
2023-03-12T01:05:57.796Z,0.9
2023-03-12T01:06:55.976Z,0.8
2023-03-12T01:07:56.050Z,0.8
2023-03-12T01:08:56.153Z,0.8
2023-03-12T01:10:01.118Z,0.8
2023-03-12T01:11:02.195Z,0.8
2023-03-12T01:11:56.242Z,1
2023-03-12T01:12:56.236Z,1.2
2023-03-12T01:13:56.367Z,1.1
2023-03-12T01:14:56.264Z,1.1
2023-03-12T01:15:56.330Z,1.1
2023-03-12T01:17:00.794Z,1
2023-03-12T01:17:56.433Z,1
2023-03-12T01:18:57.536Z,1
2023-03-12T01:20:01.778Z,1.1
2023-03-12T01:20:56.730Z,1.1
2023-03-12T01:21:56.562Z,1.1
2023-03-12T01:23:02.360Z,1.1
2023-03-12T01:23:56.608Z,1.3
2023-03-12T01:24:56.632Z,1.4
2023-03-12T01:25:56.642Z,1.4
2023-03-12T01:26:56.682Z,1.3
2023-03-12T01:27:56.935Z,1.3
2023-03-12T01:28:56.758Z,1.1
2023-03-12T01:29:56.751Z,1.1
2023-03-12T01:30:56.786Z,1.2
2023-03-12T01:31:56.775Z,1.1
2023-03-12T01:32:56.826Z,1.1
2023-03-12T01:33:56.878Z,1.1
2023-03-12T01:35:01.526Z,1
2023-03-12T01:36:02.041Z,1.1
2023-03-12T01:36:56.932Z,1.2
2023-03-12T01:38:09.827Z,1.2
2023-03-12T01:38:56.976Z,1.2
2023-03-12T01:39:57.225Z,1.1
2023-03-12T01:41:05.582Z,1
2023-03-12T01:41:57.183Z,1.1
2023-03-12T01:42:57.142Z,1.2
2023-03-12T01:44:00.669Z,1
2023-03-12T01:44:57.199Z,1
2023-03-12T01:45:57.394Z,1
2023-03-12T01:47:05.372Z,1.1
2023-03-12T01:47:57.426Z,1
2023-03-12T01:48:57.493Z,0.9
2023-03-12T01:50:04.585Z,0.9
2023-03-12T01:50:57.632Z,0.9
2023-03-12T01:51:57.738Z,0.9
2023-03-12T01:53:04.688Z,0.9
2023-03-12T01:53:57.891Z,0.9
2023-03-12T01:54:57.943Z,0.9
2023-03-12T01:56:00.813Z,1
2023-03-12T01:56:58.071Z,1.1
2023-03-12T01:57:58.068Z,1
2023-03-12T01:59:06.421Z,1
2023-03-12T01:59:58.220Z,1
2023-03-12T02:00:58.286Z,1
2023-03-12T02:01:59.071Z,1.1
2023-03-12T02:02:58.391Z,0.9
2023-03-12T02:03:58.411Z,1
2023-03-12T02:05:07.790Z,1
2023-03-12T02:05:58.501Z,0.9
2023-03-12T02:06:58.509Z,0.9
2023-03-12T02:07:59.180Z,0.9
2023-03-12T02:08:58.594Z,0.9
2023-03-12T02:09:58.717Z,0.9
2023-03-12T02:11:07.168Z,0.8
2023-03-12T02:11:58.768Z,0.8
2023-03-12T02:12:58.795Z,0.8
2023-03-12T02:14:05.501Z,1
2023-03-12T02:14:58.924Z,1.1
2023-03-12T02:15:59.029Z,1.1
2023-03-12T02:17:08.502Z,1
2023-03-12T02:17:59.000Z,1
2023-03-12T02:18:59.129Z,0.9
2023-03-12T02:20:07.951Z,0.9
2023-03-12T02:20:59.152Z,0.9
2023-03-12T02:21:59.208Z,1
2023-03-12T02:23:11.046Z,1.1
2023-03-12T02:23:59.207Z,1
2023-03-12T02:24:59.429Z,1
2023-03-12T02:26:15.503Z,0.9
2023-03-12T02:26:59.439Z,0.9
2023-03-12T02:27:59.359Z,0.8
2023-03-12T02:29:13.600Z,0.8
2023-03-12T02:29:59.548Z,0.8
2023-03-12T02:30:59.505Z,0.8
2023-03-12T02:32:13.511Z,0.8
2023-03-12T02:32:59.627Z,0.8
2023-03-12T02:33:59.540Z,0.8
2023-03-12T02:35:04.591Z,0.9
2023-03-12T02:35:59.652Z,0.9
2023-03-12T02:36:59.932Z,1
2023-03-12T02:38:23.317Z,0.9
2023-03-12T02:38:59.889Z,0.8
2023-03-12T02:39:59.701Z,0.9
2023-03-12T02:40:59.753Z,1
2023-03-12T02:42:01.045Z,1
2023-03-12T02:42:59.783Z,1
2023-03-12T02:44:37.188Z,1
2023-03-12T02:44:59.819Z,1
2023-03-12T02:45:59.953Z,1.1
2023-03-12T02:47:30.758Z,1
2023-03-12T02:48:00.238Z,1
2023-03-12T02:48:59.985Z,1.1
2023-03-12T02:50:11.600Z,1
2023-03-12T02:51:18.516Z,0.9
2023-03-12T02:52:06.793Z,1
2023-03-12T02:53:47.511Z,1
2023-03-12T02:54:17.739Z,1.1
2023-03-12T02:55:00.467Z,1.1
2023-03-12T02:56:13.679Z,1.1
2023-03-12T02:57:54.121Z,1
2023-03-12T02:58:28.277Z,1
2023-03-12T02:59:02.095Z,1.1
2023-03-12T03:00:00.523Z,1
2023-03-12T03:01:00.630Z,1
2023-03-12T03:02:00.658Z,1.1
2023-03-12T03:03:00.698Z,1.1
2023-03-12T03:04:18.757Z,1.1
2023-03-12T03:05:00.881Z,1.1
2023-03-12T03:06:20.320Z,1
2023-03-12T03:07:25.685Z,1
2023-03-12T03:08:26.876Z,1.1
2023-03-12T03:09:05.980Z,1.1
2023-03-12T03:10:17.008Z,1.1
2023-03-12T03:11:01.151Z,1
2023-03-12T03:12:13.193Z,1
2023-03-12T03:13:20.696Z,1.1
2023-03-12T03:14:16.754Z,1.1
2023-03-12T03:15:01.357Z,1.1
2023-03-12T03:16:52.980Z,1.1
2023-03-12T03:17:01.412Z,1.1
2023-03-12T03:18:27.000Z,1.1
2023-03-12T03:19:27.164Z,1.2
2023-03-12T03:20:16.406Z,1.2
2023-03-12T03:21:01.546Z,1.1
2023-03-12T03:22:14.514Z,1.1
2023-03-12T03:23:01.676Z,1.1
2023-03-12T03:24:15.745Z,1.1
2023-03-12T03:25:25.294Z,1.1
2023-03-12T03:26:15.780Z,1.1
2023-03-12T03:27:01.824Z,1.1
2023-03-12T03:28:25.874Z,1.1
2023-03-12T03:29:03.415Z,1.2
2023-03-12T03:30:20.987Z,1.1
2023-03-12T03:31:26.156Z,1.2
2023-03-12T03:32:13.556Z,1.1
2023-03-12T03:33:02.098Z,1.2
2023-03-12T03:34:18.022Z,1.2
2023-03-12T03:35:07.183Z,1.2
2023-03-12T03:36:14.301Z,1.2
2023-03-12T03:37:24.645Z,1.2
2023-03-12T03:38:27.763Z,1.1
2023-03-12T03:39:02.304Z,1.1
2023-03-12T03:40:17.144Z,1.2
2023-03-12T03:41:02.391Z,1.1
2023-03-12T03:42:13.986Z,1.2
2023-03-12T03:43:27.598Z,1.2
2023-03-12T03:44:14.067Z,1.2
2023-03-12T03:45:02.494Z,1.2
2023-03-12T03:46:07.439Z,1.1
2023-03-12T03:47:02.588Z,1.1
2023-03-12T03:48:27.496Z,1.1
2023-03-12T03:49:24.165Z,1.1
2023-03-12T03:50:13.749Z,1.1
2023-03-12T03:51:02.672Z,1.2
2023-03-12T03:52:14.097Z,1.2
2023-03-12T03:53:02.794Z,1.1
2023-03-12T03:54:10.136Z,1.1
2023-03-12T03:55:25.062Z,1.1
2023-03-12T03:56:19.688Z,1.1
2023-03-12T03:57:02.842Z,1.1
2023-03-12T03:58:11.273Z,1.1
2023-03-12T03:59:12.536Z,1.1
2023-03-12T04:00:13.812Z,1.1
2023-03-12T04:01:26.036Z,1.1
2023-03-12T04:02:16.405Z,1.1
2023-03-12T04:03:03.089Z,1.2
2023-03-12T04:04:08.916Z,1.3
2023-03-12T04:05:03.182Z,1.2
2023-03-12T04:06:19.539Z,1.2
2023-03-12T04:07:26.105Z,1.2
2023-03-12T04:08:16.889Z,1.3
2023-03-12T04:09:03.371Z,1.1
2023-03-12T04:10:52.398Z,1.2
2023-03-12T04:11:03.542Z,1.2
2023-03-12T04:12:17.162Z,1.2
2023-03-12T04:13:27.532Z,1.2
2023-03-12T04:14:21.356Z,1.3
2023-03-12T04:15:03.723Z,1.2
2023-03-12T04:16:31.556Z,1.2
2023-03-12T04:17:03.845Z,1.2
2023-03-12T04:18:04.604Z,1.2
2023-03-12T04:19:21.996Z,1.2
2023-03-12T04:20:05.029Z,1.1
2023-03-12T04:21:04.063Z,1.2
2023-03-12T04:22:31.492Z,1.2
2023-03-12T04:23:04.189Z,1.2
2023-03-12T04:24:04.203Z,1.3
2023-03-12T04:25:34.234Z,1.2
2023-03-12T04:26:04.401Z,1.2
2023-03-12T04:27:04.469Z,1.2
2023-03-12T04:28:10.812Z,1.3
2023-03-12T04:29:13.972Z,1.3
2023-03-12T04:31:39.881Z,1.4
2023-03-12T04:32:04.667Z,1.4
2023-03-12T04:33:04.723Z,1.3
2023-03-12T04:34:04.710Z,1.3
2023-03-12T04:35:04.703Z,1.3
2023-03-12T04:36:05.098Z,1.4
2023-03-12T04:37:05.093Z,1.4
2023-03-12T04:38:27.061Z,1.4
2023-03-12T04:39:04.938Z,1.3
2023-03-12T04:40:05.074Z,1.4
2023-03-12T04:41:05.073Z,1.4
2023-03-12T04:42:05.038Z,1.3
2023-03-12T04:43:05.096Z,1.3
2023-03-12T04:44:28.400Z,1.2
2023-03-12T04:45:05.160Z,1.2
2023-03-12T04:46:05.206Z,1.2
2023-03-12T04:47:05.306Z,1.3
2023-03-12T04:48:05.246Z,1.3
2023-03-12T04:49:05.298Z,1.3
2023-03-12T04:50:24.575Z,1.4
2023-03-12T04:51:05.372Z,1.3
2023-03-12T04:52:05.390Z,1.4
2023-03-12T04:53:05.430Z,1.5
2023-03-12T04:54:06.484Z,1.5
2023-03-12T04:55:05.512Z,1.4
2023-03-12T04:56:25.441Z,1.4
2023-03-12T04:57:05.547Z,1.5
2023-03-12T04:58:05.598Z,1.5
2023-03-12T04:59:21.674Z,1.4
2023-03-12T05:00:05.620Z,1.4
2023-03-12T05:01:05.633Z,1.4
2023-03-12T05:02:34.552Z,1.4
2023-03-12T05:03:05.828Z,1.5
2023-03-12T05:04:05.821Z,1.5
2023-03-12T05:05:05.824Z,1.5
2023-03-12T05:06:05.847Z,1.5
2023-03-12T05:07:05.878Z,1.5
2023-03-12T05:08:28.346Z,1.4
2023-03-12T05:09:05.934Z,1.4
2023-03-12T05:10:09.129Z,1.4
2023-03-12T05:11:06.048Z,1.3
2023-03-12T05:12:07.097Z,1.4
2023-03-12T05:13:06.109Z,1.3
2023-03-12T05:14:08.028Z,1.2
2023-03-12T05:15:06.143Z,1.2
2023-03-12T05:16:17.398Z,1.3
2023-03-12T05:17:06.224Z,1.3
2023-03-12T05:18:16.209Z,1.1
2023-03-12T05:19:06.273Z,1.1
2023-03-12T05:20:24.285Z,1
2023-03-12T05:21:06.415Z,0.9
2023-03-12T05:22:23.034Z,0.8
2023-03-12T05:23:06.606Z,0.8
2023-03-12T05:24:22.994Z,0.7
2023-03-12T05:25:06.691Z,0.8
2023-03-12T05:26:28.615Z,0.6
2023-03-12T05:27:06.841Z,0.6
2023-03-12T05:28:27.828Z,0.6
2023-03-12T05:29:06.940Z,0.5
2023-03-12T05:30:24.637Z,0.6
2023-03-12T05:31:07.161Z,0.5
2023-03-12T05:32:47.695Z,0.4
2023-03-12T05:33:07.179Z,0.5
2023-03-12T05:34:24.320Z,0.5
2023-03-12T05:35:11.884Z,0.5
2023-03-12T05:36:24.717Z,0.5
2023-03-12T05:37:07.494Z,0.4
2023-03-12T05:38:11.421Z,0.6
2023-03-12T05:39:07.546Z,0.5
2023-03-12T05:40:16.774Z,0.4
2023-03-12T05:41:10.710Z,0.4
2023-03-12T05:42:24.918Z,0.5
2023-03-12T05:43:07.700Z,0.4
2023-03-12T05:44:08.394Z,0.4
2023-03-12T05:45:07.723Z,0.4
2023-03-12T05:46:09.034Z,0.5
2023-03-12T05:47:14.220Z,0.5
2023-03-12T05:48:12.739Z,0.6
2023-03-12T05:49:07.957Z,0.5
2023-03-12T05:50:17.685Z,0.5
2023-03-12T05:51:08.034Z,0.4
2023-03-12T05:52:08.068Z,0.3
2023-03-12T05:53:14.576Z,0.2
2023-03-12T05:54:08.192Z,0.3
2023-03-12T05:55:08.238Z,0.4
2023-03-12T05:56:18.149Z,0.4
2023-03-12T05:57:08.277Z,0.4
2023-03-12T05:58:08.567Z,0.5
2023-03-12T05:59:21.111Z,0.6
2023-03-12T06:00:08.398Z,0.4
2023-03-12T06:01:08.437Z,0.3
2023-03-12T06:02:18.442Z,0.3
2023-03-12T06:03:08.699Z,0.3
2023-03-12T06:04:08.528Z,0.3
2023-03-12T06:05:17.696Z,0.4
2023-03-12T06:06:08.640Z,0.4
2023-03-12T06:07:08.641Z,0.4
2023-03-12T06:08:31.261Z,0.4
2023-03-12T06:09:08.690Z,0.4
2023-03-12T06:10:08.733Z,0.3
2023-03-12T06:11:40.680Z,0.4
2023-03-12T06:12:08.799Z,0.4
2023-03-12T06:13:08.829Z,0.3
2023-03-12T06:14:30.406Z,0.4
2023-03-12T06:15:08.885Z,0.4
2023-03-12T06:16:08.910Z,0.4
2023-03-12T06:17:32.407Z,0.3
2023-03-12T06:18:08.960Z,0.3
2023-03-12T06:19:09.038Z,0.3
2023-03-12T06:20:12.452Z,0.3
2023-03-12T06:21:09.149Z,0.4
2023-03-12T06:22:09.230Z,0.3
2023-03-12T06:23:25.086Z,0.3
2023-03-12T06:24:09.824Z,0.4
2023-03-12T06:25:10.518Z,0.3
2023-03-12T06:26:10.692Z,0.4
2023-03-12T06:27:17.637Z,0.3
2023-03-12T06:28:14.541Z,0.4
2023-03-12T06:29:09.549Z,0.5
2023-03-12T06:30:09.435Z,0.6
2023-03-12T06:31:14.509Z,0.5
2023-03-12T06:32:28.186Z,0.5
2023-03-12T06:33:15.063Z,0.4
2023-03-12T06:34:10.527Z,0.4
2023-03-12T06:35:45.283Z,0.4
2023-03-12T06:36:10.332Z,0.5
2023-03-12T06:37:09.905Z,0.4
2023-03-12T06:38:14.358Z,0.4
2023-03-12T06:39:26.836Z,0.4
2023-03-12T06:40:15.079Z,0.6
2023-03-12T06:41:11.011Z,0.6
2023-03-12T06:42:10.210Z,0.5
2023-03-12T06:43:10.300Z,0.5
2023-03-12T06:44:40.865Z,0.5
2023-03-12T06:45:10.423Z,0.6
2023-03-12T06:46:10.540Z,0.5
2023-03-12T06:47:17.546Z,0.6
2023-03-12T06:48:10.587Z,0.6
2023-03-12T06:49:10.706Z,0.6
2023-03-12T06:50:42.929Z,0.6
2023-03-12T06:51:11.880Z,0.7
2023-03-12T06:52:11.034Z,0.6
2023-03-12T06:53:12.247Z,0.6
2023-03-12T06:54:10.970Z,0.6
2023-03-12T06:55:11.909Z,0.6
2023-03-12T06:56:11.061Z,0.7
2023-03-12T06:57:15.891Z,0.8
2023-03-12T06:58:11.088Z,0.7
2023-03-12T06:59:15.832Z,0.8
2023-03-12T07:00:11.187Z,0.8
2023-03-12T07:01:12.881Z,0.8
2023-03-12T07:02:11.429Z,0.8
2023-03-12T07:03:21.336Z,0.8
2023-03-12T07:04:11.397Z,0.8
2023-03-12T07:05:19.800Z,0.9
2023-03-12T07:06:11.503Z,0.9
2023-03-12T07:07:19.455Z,0.8
2023-03-12T07:08:11.546Z,0.8
2023-03-12T07:09:19.485Z,0.8
2023-03-12T07:10:11.636Z,0.8
2023-03-12T07:11:19.542Z,0.8
2023-03-12T07:12:11.731Z,0.9
2023-03-12T07:13:19.616Z,0.9
2023-03-12T07:14:11.784Z,0.9
2023-03-12T07:15:20.135Z,0.9
2023-03-12T07:16:11.903Z,0.9
2023-03-12T07:17:21.648Z,0.9
2023-03-12T07:18:11.887Z,1
2023-03-12T07:19:12.352Z,1
2023-03-12T07:20:11.984Z,1
2023-03-12T07:21:24.003Z,0.9
2023-03-12T07:22:12.045Z,0.9
2023-03-12T07:23:23.791Z,0.9
2023-03-12T07:24:12.132Z,1
2023-03-12T07:25:23.662Z,0.9
2023-03-12T07:26:12.150Z,0.9
2023-03-12T07:27:26.049Z,0.9
2023-03-12T07:28:12.253Z,1
2023-03-12T07:29:26.746Z,1
2023-03-12T07:30:12.294Z,1
2023-03-12T07:31:26.621Z,1
2023-03-12T07:32:12.395Z,1
2023-03-12T07:33:28.717Z,1.1
2023-03-12T07:34:12.717Z,1
2023-03-12T07:35:21.339Z,1
2023-03-12T07:36:12.668Z,1
2023-03-12T07:37:27.364Z,1
2023-03-12T07:38:12.564Z,1.1
2023-03-12T07:39:31.812Z,1
2023-03-12T07:40:12.637Z,1
2023-03-12T07:41:30.660Z,1
2023-03-12T07:42:16.234Z,1
2023-03-12T07:43:29.978Z,1
2023-03-12T07:44:12.918Z,1.2
2023-03-12T07:45:30.528Z,1.2
2023-03-12T07:46:13.060Z,1.2
2023-03-12T07:47:30.072Z,1.1
2023-03-12T07:48:13.152Z,1.1
2023-03-12T07:49:22.904Z,1.1
2023-03-12T07:50:13.300Z,1
2023-03-12T07:51:36.963Z,1.1
2023-03-12T07:52:13.592Z,1.2
2023-03-12T07:53:34.912Z,1.2
2023-03-12T07:54:13.458Z,1.2
2023-03-12T07:55:38.866Z,1.2
2023-03-12T07:56:14.037Z,1.2
2023-03-12T07:57:19.594Z,1.2
2023-03-12T07:58:13.874Z,1.2
2023-03-12T07:59:38.227Z,1.2
2023-03-12T08:00:13.901Z,1.2
2023-03-12T08:01:32.593Z,1.2
2023-03-12T08:02:14.012Z,1.2
2023-03-12T08:03:37.036Z,1.2
2023-03-12T08:04:14.181Z,1.2
2023-03-12T08:05:34.438Z,1.3
2023-03-12T08:06:23.901Z,1.3
2023-03-12T08:07:38.755Z,1.3
2023-03-12T08:08:14.233Z,1.3
2023-03-12T08:09:35.418Z,1.3
2023-03-12T08:10:14.298Z,1.4
2023-03-12T08:11:39.097Z,1.5
2023-03-12T08:12:25.073Z,1.5
2023-03-12T08:13:31.001Z,1.5
2023-03-12T08:14:14.529Z,1.5
2023-03-12T08:15:37.247Z,1.4
2023-03-12T08:16:14.612Z,1.3
2023-03-12T08:17:15.398Z,1.4
2023-03-12T08:18:28.076Z,1.4
2023-03-12T08:19:19.128Z,1.5
2023-03-12T08:20:14.717Z,1.5
2023-03-12T08:21:20.244Z,1.5
2023-03-12T08:22:14.751Z,1.4
2023-03-12T08:23:14.832Z,1.4
2023-03-12T08:24:15.978Z,1.4
2023-03-12T08:25:14.875Z,1.5
2023-03-12T08:26:14.880Z,1.5
2023-03-12T08:27:23.268Z,1.6
2023-03-12T08:28:15.001Z,1.6
2023-03-12T08:29:14.992Z,1.7
2023-03-12T08:30:30.148Z,1.7
2023-03-12T08:31:15.070Z,1.6
2023-03-12T08:32:21.444Z,1.6
2023-03-12T08:33:44.806Z,1.6
2023-03-12T08:34:20.175Z,1.7
2023-03-12T08:35:15.223Z,1.7
2023-03-12T08:36:15.774Z,1.8
2023-03-12T08:37:15.245Z,1.8
2023-03-12T08:38:15.287Z,1.8
2023-03-12T08:39:21.394Z,1.8
2023-03-12T08:40:25.948Z,1.9
2023-03-12T08:41:15.668Z,1.8
2023-03-12T08:42:20.854Z,1.8
2023-03-12T08:43:15.464Z,1.8
2023-03-12T08:44:15.599Z,1.8
2023-03-12T08:45:28.294Z,1.8
2023-03-12T08:46:22.500Z,1.8
2023-03-12T08:47:20.659Z,1.9
2023-03-12T08:48:51.118Z,2
2023-03-12T08:49:15.717Z,1.9
2023-03-12T08:50:15.764Z,2
2023-03-12T08:51:41.957Z,2
2023-03-12T08:52:25.322Z,1.9
2023-03-12T08:53:15.802Z,1.9
2023-03-12T08:54:16.505Z,2
2023-03-12T08:55:17.017Z,2
2023-03-12T08:56:21.289Z,1.9
2023-03-12T08:57:17.485Z,1.8
2023-03-12T08:58:23.937Z,1.9
2023-03-12T08:59:16.172Z,2
2023-03-12T09:00:46.267Z,2
2023-03-12T09:01:16.246Z,2
2023-03-12T09:02:25.065Z,1.9
2023-03-12T09:03:46.360Z,1.9
2023-03-12T09:04:16.521Z,1.9
2023-03-12T09:05:16.502Z,1.9
2023-03-12T09:06:47.362Z,1.9
2023-03-12T09:07:16.624Z,2
2023-03-12T09:08:16.685Z,2
2023-03-12T09:09:16.744Z,2.1
2023-03-12T09:10:31.045Z,2.1
2023-03-12T09:11:16.868Z,2
2023-03-12T09:12:29.636Z,2
2023-03-12T09:13:16.999Z,2
2023-03-12T09:15:01.292Z,2.1
2023-03-12T09:15:17.570Z,2
2023-03-12T09:16:19.782Z,2.1
2023-03-12T09:17:17.131Z,2.1
2023-03-12T09:18:17.434Z,2.1
2023-03-12T09:19:17.183Z,2.1
2023-03-12T09:20:18.307Z,2.1
2023-03-12T09:21:17.386Z,2.1
2023-03-12T09:22:28.118Z,2.1
2023-03-12T09:23:17.409Z,2.2
2023-03-12T09:24:24.388Z,2.2
2023-03-12T09:25:17.459Z,2.2
2023-03-12T09:26:19.848Z,2.3
2023-03-12T09:27:17.562Z,2.2
2023-03-12T09:28:22.817Z,2.2
2023-03-12T09:29:17.883Z,2.2
2023-03-12T09:30:21.942Z,2.2
2023-03-12T09:31:17.735Z,2.2
2023-03-12T09:32:20.202Z,2.2
2023-03-12T09:33:17.786Z,2.2
2023-03-12T09:34:22.475Z,2.3
2023-03-12T09:35:17.836Z,2.3
2023-03-12T09:36:27.811Z,2.4
2023-03-12T09:37:17.875Z,2.3
2023-03-12T09:38:23.540Z,2.3
2023-03-12T09:39:17.963Z,2.3
2023-03-12T09:40:32.861Z,2.3
2023-03-12T09:41:17.997Z,2.2
2023-03-12T09:42:37.488Z,2.3
2023-03-12T09:43:23.238Z,2.3
2023-03-12T09:44:32.780Z,2.3
2023-03-12T09:45:18.195Z,2.3
2023-03-12T09:46:35.831Z,2.4
2023-03-12T09:47:18.210Z,2.4
2023-03-12T09:48:32.435Z,2.4
2023-03-12T09:49:18.274Z,2.4
2023-03-12T09:50:31.983Z,2.4
2023-03-12T09:51:18.382Z,2.4
2023-03-12T09:52:43.245Z,2.5
2023-03-12T09:53:18.427Z,2.5
2023-03-12T09:54:39.608Z,2.5
2023-03-12T09:55:18.537Z,2.6
2023-03-12T09:56:39.150Z,2.6
2023-03-12T09:57:18.655Z,2.6
2023-03-12T09:58:20.362Z,2.6
2023-03-12T09:59:18.730Z,2.6
2023-03-12T10:00:23.244Z,2.6
2023-03-12T10:01:34.668Z,2.6
2023-03-12T10:02:51.769Z,2.6
2023-03-12T10:03:19.162Z,2.6
2023-03-12T10:04:23.257Z,2.6
2023-03-12T10:05:18.841Z,2.7
2023-03-12T10:06:19.033Z,2.8
2023-03-12T10:07:30.964Z,2.8
2023-03-12T10:08:24.116Z,2.7
2023-03-12T10:09:19.125Z,2.7
2023-03-12T10:10:29.176Z,2.8
2023-03-12T10:11:19.528Z,2.8
2023-03-12T10:12:19.334Z,2.8
2023-03-12T10:13:19.521Z,2.8
2023-03-12T10:14:23.619Z,2.8
2023-03-12T10:15:19.497Z,2.8
2023-03-12T10:16:19.622Z,2.9
2023-03-12T10:17:19.625Z,2.9
2023-03-12T10:18:19.808Z,2.9
2023-03-12T10:19:19.886Z,3
2023-03-12T10:20:20.987Z,3
2023-03-12T10:21:19.919Z,3
2023-03-12T10:22:25.137Z,3
2023-03-12T10:23:20.040Z,3
2023-03-12T10:24:19.987Z,3.1
2023-03-12T10:25:47.944Z,3.1
2023-03-12T10:26:20.109Z,3
2023-03-12T10:27:20.150Z,3
2023-03-12T10:28:36.679Z,3.1
2023-03-12T10:29:20.210Z,3.2
2023-03-12T10:30:20.260Z,3.1
2023-03-12T10:31:43.319Z,3.2
2023-03-12T10:32:20.394Z,3.2
2023-03-12T10:33:20.630Z,3.2
2023-03-12T10:34:47.998Z,3.3
2023-03-12T10:35:21.951Z,3.3
2023-03-12T10:36:20.552Z,3.3
2023-03-12T10:37:53.309Z,3.3
2023-03-12T10:38:20.580Z,3.3
2023-03-12T10:39:20.637Z,3.3
2023-03-12T10:40:50.012Z,3.3
2023-03-12T10:41:22.585Z,3.3
2023-03-12T10:42:20.786Z,3.3
2023-03-12T10:43:25.713Z,3.3
2023-03-12T10:44:20.834Z,3.4
2023-03-12T10:45:20.864Z,3.4
2023-03-12T10:46:55.251Z,3.5
2023-03-12T10:47:27.007Z,3.5
2023-03-12T10:48:21.014Z,3.6
2023-03-12T10:49:33.175Z,3.6
2023-03-12T10:50:21.062Z,3.6
2023-03-12T10:51:25.185Z,3.6
2023-03-12T10:52:21.095Z,3.6
2023-03-12T10:53:34.753Z,3.6
2023-03-12T10:54:21.142Z,3.7
2023-03-12T10:55:32.916Z,3.7
2023-03-12T10:56:21.257Z,3.6
2023-03-12T10:57:31.023Z,3.6
2023-03-12T10:58:21.303Z,3.6
2023-03-12T10:59:36.100Z,3.7
2023-03-12T11:00:21.373Z,3.7
2023-03-12T11:01:39.639Z,3.7
2023-03-12T11:02:21.438Z,3.8
2023-03-12T11:03:43.837Z,3.8
2023-03-12T11:04:21.653Z,3.9
2023-03-12T11:05:46.463Z,3.9
2023-03-12T11:06:21.587Z,3.9
2023-03-12T11:07:49.551Z,3.9
2023-03-12T11:08:30.066Z,3.9
2023-03-12T11:09:49.314Z,3.9
2023-03-12T11:10:21.874Z,3.9
2023-03-12T11:11:49.694Z,3.9
2023-03-12T11:12:27.661Z,3.9
2023-03-12T11:13:21.831Z,4
2023-03-12T11:14:34.165Z,4
2023-03-12T11:15:21.947Z,4
2023-03-12T11:16:22.003Z,4.1
2023-03-12T11:17:32.993Z,4.1
2023-03-12T11:18:34.760Z,4.2
2023-03-12T11:19:22.196Z,4.2
2023-03-12T11:20:40.666Z,4.1
2023-03-12T11:21:25.820Z,4.2
2023-03-12T11:22:34.471Z,4.2
2023-03-12T11:23:52.171Z,4.3
2023-03-12T11:25:05.017Z,4.3
2023-03-12T11:25:22.488Z,4.3
2023-03-12T11:26:29.576Z,4.3
2023-03-12T11:27:32.828Z,4.3
2023-03-12T11:28:58.386Z,4.4
2023-03-12T11:29:47.397Z,4.5
2023-03-12T11:31:26.625Z,4.4
2023-03-12T11:31:27.874Z,4.5
2023-03-12T11:34:26.665Z,4.4
2023-03-12T11:36:42.541Z,4.4
2023-03-12T11:37:48.511Z,4.5
2023-03-12T11:39:59.646Z,4.5
2023-03-12T11:40:23.301Z,4.5
2023-03-12T11:41:23.334Z,4.6
2023-03-12T11:42:23.375Z,4.6
2023-03-12T11:43:36.191Z,4.6
2023-03-12T11:44:23.435Z,4.6
2023-03-12T11:45:23.497Z,4.6
2023-03-12T11:46:28.551Z,4.6
2023-03-12T11:47:23.658Z,4.6
2023-03-12T11:48:23.682Z,4.6
2023-03-12T11:49:23.666Z,4.6
2023-03-12T11:50:23.748Z,4.6
2023-03-12T11:51:23.964Z,4.6
2023-03-12T11:52:23.793Z,4.6
2023-03-12T11:53:23.831Z,4.7
2023-03-12T11:54:23.891Z,4.8
2023-03-12T11:55:23.958Z,4.8
2023-03-12T11:56:24.976Z,4.9
2023-03-12T11:57:24.276Z,4.9
2023-03-12T11:58:24.030Z,4.9
2023-03-12T11:59:24.288Z,5
2023-03-12T12:00:24.070Z,5
2023-03-12T12:01:24.353Z,5
2023-03-12T12:02:24.548Z,5.1
2023-03-12T12:03:24.201Z,5.1
2023-03-12T12:04:34.277Z,5.1
2023-03-12T12:05:24.315Z,5.2
2023-03-12T12:06:29.544Z,5.3
2023-03-12T12:07:24.652Z,5.3
2023-03-12T12:08:24.379Z,5.3
2023-03-12T12:09:40.682Z,5.3
2023-03-12T12:10:34.455Z,5.3
2023-03-12T12:11:24.428Z,5.3
2023-03-12T12:12:24.473Z,5.3
2023-03-12T12:13:24.501Z,5.4
2023-03-12T12:14:24.568Z,5.4
2023-03-12T12:15:25.175Z,5.4
2023-03-12T12:16:24.859Z,5.4
2023-03-12T12:17:24.691Z,5.5
2023-03-12T12:18:25.622Z,5.5
2023-03-12T12:19:24.785Z,5.6
2023-03-12T12:20:25.068Z,5.6
2023-03-12T12:21:24.793Z,5.6
2023-03-12T12:22:24.821Z,5.6
2023-03-12T12:23:24.822Z,5.6
2023-03-12T12:24:27.713Z,5.7
2023-03-12T12:25:24.900Z,5.8
2023-03-12T12:26:24.993Z,5.8
2023-03-12T12:27:24.978Z,5.8
2023-03-12T12:28:25.003Z,5.9
2023-03-12T12:29:25.073Z,6
2023-03-12T12:30:25.172Z,6
2023-03-12T12:31:25.399Z,6.1
2023-03-12T12:32:25.357Z,6.2
2023-03-12T12:33:25.382Z,6.4
2023-03-12T12:34:25.522Z,6.4
2023-03-12T12:35:25.575Z,6.5
2023-03-12T12:36:25.607Z,6.4
2023-03-12T12:37:25.676Z,6.4
2023-03-12T12:38:25.770Z,6.5
2023-03-12T12:39:25.777Z,6.5
2023-03-12T12:40:25.841Z,6.5
2023-03-12T12:41:25.902Z,6.5
2023-03-12T12:42:26.039Z,6.5
2023-03-12T12:43:25.984Z,6.4
2023-03-12T12:44:26.080Z,6.5
2023-03-12T12:45:26.176Z,6.5
2023-03-12T12:46:26.330Z,6.6
2023-03-12T12:47:26.273Z,6.7
2023-03-12T12:48:26.296Z,6.6
2023-03-12T12:49:26.685Z,6.6
2023-03-12T12:50:26.671Z,6.7
2023-03-12T12:51:26.520Z,6.6
2023-03-12T12:52:38.022Z,6.5
2023-03-12T12:53:26.603Z,6.6
2023-03-12T12:54:38.346Z,6.5
2023-03-12T12:55:26.614Z,6.4
2023-03-12T12:56:26.703Z,6.5
2023-03-12T12:57:35.359Z,6.5
2023-03-12T12:58:41.795Z,6.7
2023-03-12T12:59:30.566Z,6.7
2023-03-12T13:00:26.852Z,6.7
2023-03-12T13:01:27.906Z,6.6
2023-03-12T13:02:27.721Z,6.6
2023-03-12T13:03:27.964Z,6.5
2023-03-12T13:04:27.094Z,6.5
2023-03-12T13:05:27.238Z,6.6
2023-03-12T13:06:27.086Z,6.6
2023-03-12T13:07:28.040Z,6.6
2023-03-12T13:08:27.155Z,6.6
2023-03-12T13:09:27.243Z,6.6
2023-03-12T13:10:27.199Z,6.6
2023-03-12T13:11:27.264Z,6.7
2023-03-12T13:12:27.265Z,6.7
2023-03-12T13:13:27.681Z,6.7
2023-03-12T13:14:27.348Z,6.7
2023-03-12T13:15:27.397Z,6.8
2023-03-12T13:16:27.453Z,6.8
2023-03-12T13:17:27.425Z,6.8
2023-03-12T13:18:27.480Z,6.8
2023-03-12T13:19:27.513Z,6.8
2023-03-12T13:20:27.536Z,6.8
2023-03-12T13:21:27.575Z,6.8
2023-03-12T13:22:27.573Z,6.8
2023-03-12T13:23:27.630Z,6.8
2023-03-12T13:24:27.694Z,6.8
2023-03-12T13:25:27.707Z,6.7
2023-03-12T13:26:27.772Z,6.7
2023-03-12T13:27:27.771Z,6.8
2023-03-12T13:28:27.788Z,6.7
2023-03-12T13:29:27.880Z,6.7
2023-03-12T13:30:27.887Z,6.7
2023-03-12T13:31:27.954Z,6.7
2023-03-12T13:32:27.955Z,6.7
2023-03-12T13:33:27.960Z,6.7
2023-03-12T13:34:28.407Z,6.8
2023-03-12T13:35:28.058Z,6.8
2023-03-12T13:36:28.077Z,6.9
2023-03-12T13:37:28.112Z,7.1
2023-03-12T13:38:28.138Z,7.2
2023-03-12T13:39:28.198Z,7.5
2023-03-12T13:40:28.258Z,7.6
2023-03-12T13:41:29.132Z,7.6
2023-03-12T13:42:28.462Z,7.7
2023-03-12T13:43:28.515Z,7.7
2023-03-12T13:44:28.582Z,7.8
2023-03-12T13:45:50.440Z,7.9
2023-03-12T13:46:28.804Z,8
2023-03-12T13:47:41.422Z,8
2023-03-12T13:48:42.759Z,8
2023-03-12T13:49:45.254Z,7.9
2023-03-12T13:50:28.998Z,7.9
2023-03-12T13:51:55.825Z,8.1
2023-03-12T13:52:29.046Z,8.2
2023-03-12T13:53:35.081Z,8.3
2023-03-12T13:54:30.941Z,8.2
2023-03-12T13:55:33.817Z,8.2
2023-03-12T13:56:29.328Z,8.3
2023-03-12T13:58:30.103Z,8.3
2023-03-12T13:58:32.726Z,8.4
2023-03-12T13:59:29.425Z,8.5